KTWF/TWF METAR and TAF weather

Enter ICAO airport designator
Station Type Date Time Source
KTWF METAR 2021/05/11 00:53 UTC NOAA

KTWF 110053Z AUTO 35008G16KT 10SM SCT070 BKN090 13/M07 A3006 RMK AO2 SLP162 T01331067


Station Type Date Time Source
KTWF Decoded METAR 2021/05/11 00:53 UTC NOAA

JOSLIN FLD-MAGIC VALLEY REGL, ID, United States (KTWF) 42-29N 114-29W 1266M
May 10, 2021 - 08:53 PM EDT / 2021.05.11 0053 UTC
Wind: from the N (350 degrees) at 9 MPH (8 KT) gusting to 18 MPH (16 KT):0
Visibility: 10 mile(s):0
Sky conditions: mostly cloudy
Temperature: 55.9 F (13.3 C)
Dew Point: 19.9 F (-6.7 C)
Relative Humidity: 24%
Pressure (altimeter): 30.06 in. Hg (1017 hPa)
ob: KTWF 110053Z AUTO 35008G16KT 10SM SCT070 BKN090 13/M07 A3006 RMK AO2 SLP162 T01331067
cycle: 1

Station Type Date Time Source
KTWF TAF 2021/05/10 18:21 UTC NOAA

TAF KTWF 101720Z 1018/1118 29012KT P6SM SCT080
FM102000 29014G22KT P6SM SCT080
FM110300 22010KT P6SM SCT200

Example: see airport list